createdAt,value
2022-12-09T00:01:42.572Z,5.37
2022-12-09T00:04:12.846Z,5.10
2022-12-09T00:06:43.296Z,5.80
2022-12-09T00:09:18.287Z,5.90
2022-12-09T00:11:48.598Z,5.30
2022-12-09T00:14:18.870Z,5.40
2022-12-09T00:16:51.660Z,5.50
2022-12-09T00:19:22.274Z,5.80
2022-12-09T00:21:52.438Z,6.30
2022-12-09T00:24:23.992Z,6.00
2022-12-09T00:26:55.524Z,5.97
2022-12-09T00:29:28.155Z,6.27
2022-12-09T00:32:00.980Z,5.73
2022-12-09T00:34:31.273Z,6.37
2022-12-09T00:37:01.378Z,5.80
2022-12-09T00:39:31.559Z,6.17
2022-12-09T00:42:01.615Z,6.03
2022-12-09T00:44:32.457Z,6.20
2022-12-09T00:47:05.285Z,6.00
2022-12-09T00:49:35.811Z,5.77
2022-12-09T00:52:06.003Z,5.60
2022-12-09T00:54:36.402Z,5.67
2022-12-09T00:57:07.315Z,5.80
2022-12-09T00:59:37.481Z,5.23
2022-12-09T01:02:10.297Z,6.07
2022-12-09T01:04:41.835Z,6.17
2022-12-09T01:07:13.880Z,6.10
2022-12-09T01:09:44.526Z,5.47
2022-12-09T01:12:14.651Z,6.07
2022-12-09T01:14:44.736Z,5.87
2022-12-09T01:17:17.504Z,5.07
2022-12-09T01:19:48.255Z,5.73
2022-12-09T01:22:18.502Z,5.83
2022-12-09T01:24:48.575Z,5.97
2022-12-09T01:27:19.069Z,6.17
2022-12-09T01:29:49.151Z,5.50
2022-12-09T01:32:23.420Z,6.70
2022-12-09T01:34:53.700Z,5.30
2022-12-09T01:37:23.839Z,6.03
2022-12-09T01:39:53.927Z,6.00
2022-12-09T01:42:27.333Z,5.83
2022-12-09T01:45:45.886Z,5.90
2022-12-09T01:48:22.575Z,6.47
2022-12-09T01:50:58.951Z,5.97
2022-12-09T01:53:34.669Z,5.80
2022-12-09T01:56:12.020Z,6.07
2022-12-09T01:58:42.513Z,6.00
2022-12-09T02:01:16.686Z,5.93
2022-12-09T02:03:49.834Z,6.80
2022-12-09T02:06:21.112Z,5.97
2022-12-09T02:08:53.467Z,5.83
2022-12-09T02:11:38.899Z,6.33
2022-12-09T02:14:19.187Z,6.30
2022-12-09T02:17:08.833Z,5.80
2022-12-09T02:20:02.130Z,5.67
2022-12-09T02:22:40.995Z,6.53
2022-12-09T02:25:32.700Z,6.80
2022-12-09T02:28:44.189Z,6.00
2022-12-09T02:31:34.986Z,6.63
2022-12-09T02:34:17.555Z,6.23
2022-12-09T02:37:13.957Z,6.50
2022-12-09T02:39:56.665Z,6.50
2022-12-09T02:42:32.461Z,6.17
2022-12-09T02:45:07.583Z,7.07
2022-12-09T02:47:43.476Z,6.43
2022-12-09T02:50:23.970Z,5.97
2022-12-09T02:52:57.020Z,6.20
2022-12-09T02:55:28.548Z,5.83
2022-12-09T02:58:04.518Z,6.53
2022-12-09T03:00:35.026Z,6.13
2022-12-09T03:03:12.574Z,6.00
2022-12-09T03:05:55.747Z,5.90
2022-12-09T03:08:39.684Z,6.60
2022-12-09T03:11:13.709Z,5.93
2022-12-09T03:13:56.723Z,6.93
2022-12-09T03:16:36.116Z,6.77
2022-12-09T03:19:14.292Z,6.63
2022-12-09T03:21:50.966Z,7.37
2022-12-09T03:24:29.032Z,6.40
2022-12-09T03:27:03.522Z,6.37
2022-12-09T03:29:38.277Z,7.40
2022-12-09T03:32:09.067Z,7.20
2022-12-09T03:34:44.991Z,6.90
2022-12-09T03:37:21.872Z,6.67
2022-12-09T03:39:54.000Z,6.50
2022-12-09T03:42:31.265Z,7.10
2022-12-09T03:45:06.078Z,6.70
2022-12-09T03:47:36.616Z,7.03
2022-12-09T03:50:09.439Z,6.63
2022-12-09T03:52:51.192Z,7.20
2022-12-09T03:55:32.187Z,7.00
2022-12-09T03:58:07.863Z,7.13
2022-12-09T04:00:41.636Z,7.37
2022-12-09T04:03:12.037Z,6.73
2022-12-09T04:05:44.555Z,6.93
2022-12-09T04:08:17.536Z,7.07
2022-12-09T04:10:47.809Z,6.40
2022-12-09T04:13:18.613Z,7.00
2022-12-09T04:15:48.978Z,7.10
2022-12-09T04:18:19.192Z,6.60
2022-12-09T04:20:49.614Z,6.90
2022-12-09T04:23:22.323Z,7.20
2022-12-09T04:25:52.447Z,6.90
2022-12-09T04:28:22.586Z,7.43
2022-12-09T04:30:52.892Z,7.17
2022-12-09T04:33:23.014Z,6.63
2022-12-09T04:35:53.053Z,7.23
2022-12-09T04:38:25.964Z,7.40
2022-12-09T04:40:56.201Z,7.17
2022-12-09T04:43:26.372Z,6.97
2022-12-09T04:45:56.938Z,7.20
2022-12-09T04:48:27.299Z,7.97
2022-12-09T04:50:58.392Z,14.27
2022-12-09T04:53:34.313Z,7.70
2022-12-09T04:56:07.237Z,7.37
2022-12-09T04:58:37.789Z,7.50
2022-12-09T05:01:16.344Z,7.33
2022-12-09T05:03:51.846Z,7.97
2022-12-09T05:06:26.251Z,7.70
2022-12-09T05:08:59.633Z,7.40
2022-12-09T05:11:29.898Z,7.13
2022-12-09T05:14:00.714Z,7.70
2022-12-09T05:16:31.089Z,6.63
2022-12-09T05:19:03.441Z,7.00
2022-12-09T05:21:34.134Z,7.97
2022-12-09T05:24:09.985Z,8.00
2022-12-09T05:26:41.156Z,7.60
2022-12-09T05:29:11.680Z,7.90
2022-12-09T05:31:42.575Z,7.03
2022-12-09T05:34:13.088Z,7.40
2022-12-09T05:36:43.337Z,7.43
2022-12-09T05:39:18.304Z,7.37
2022-12-09T05:41:49.576Z,8.23
2022-12-09T05:44:20.438Z,15.13
2022-12-09T05:46:50.693Z,17.60
2022-12-09T05:49:21.209Z,10.80
2022-12-09T05:51:51.505Z,8.30
2022-12-09T05:54:24.561Z,8.43
2022-12-09T05:56:57.403Z,8.53
2022-12-09T05:59:28.177Z,8.83
2022-12-09T06:01:58.573Z,18.20
2022-12-09T06:04:28.745Z,138.60
2022-12-09T06:06:59.457Z,29.20
2022-12-09T06:09:33.016Z,9.43
2022-12-09T06:12:03.610Z,8.37
2022-12-09T06:14:34.259Z,7.57
2022-12-09T06:17:04.598Z,7.43
2022-12-09T06:19:35.080Z,13.13
2022-12-09T06:22:06.002Z,9.13
2022-12-09T06:24:38.943Z,9.40
2022-12-09T06:27:09.270Z,13.77
2022-12-09T06:29:39.718Z,38.07
2022-12-09T06:32:11.086Z,26.27
2022-12-09T06:34:42.343Z,17.63
2022-12-09T06:37:12.734Z,13.33
2022-12-09T06:39:45.612Z,15.77
2022-12-09T06:42:18.588Z,11.77
2022-12-09T06:44:48.934Z,9.93
2022-12-09T06:47:19.248Z,9.27
2022-12-09T06:50:05.892Z,9.43
2022-12-09T06:52:37.640Z,12.13
2022-12-09T06:55:14.366Z,10.03
2022-12-09T06:57:45.130Z,13.90
2022-12-09T07:00:17.902Z,14.27
2022-12-09T07:02:48.624Z,12.00
2022-12-09T07:05:19.577Z,11.93
2022-12-09T07:07:54.059Z,12.33
2022-12-09T07:10:27.970Z,12.30
2022-12-09T07:12:58.697Z,13.83
2022-12-09T07:15:31.593Z,16.00
2022-12-09T07:18:02.795Z,11.70
2022-12-09T07:20:33.315Z,10.90
2022-12-09T07:23:06.025Z,9.60
2022-12-09T07:25:39.011Z,10.30
2022-12-09T07:28:11.592Z,10.00
2022-12-09T07:30:42.045Z,9.00
2022-12-09T07:33:12.454Z,9.57
2022-12-09T07:35:43.193Z,12.67
2022-12-09T07:38:14.063Z,16.87
2022-12-09T07:40:46.905Z,11.20
2022-12-09T07:43:17.435Z,10.20
2022-12-09T07:45:49.459Z,12.00
2022-12-09T07:48:30.589Z,13.60
2022-12-09T07:51:03.478Z,13.50
2022-12-09T07:53:34.716Z,11.93
2022-12-09T07:56:14.818Z,9.20
2022-12-09T07:58:47.756Z,8.27
2022-12-09T08:01:21.760Z,8.00
2022-12-09T08:03:54.478Z,8.47
2022-12-09T08:06:28.507Z,7.97
2022-12-09T08:09:02.132Z,7.67
2022-12-09T08:11:36.775Z,9.67
2022-12-09T08:14:13.314Z,13.00
2022-12-09T08:16:44.758Z,10.07
2022-12-09T08:19:16.311Z,8.00
2022-12-09T08:21:52.818Z,7.33
2022-12-09T08:24:26.875Z,8.57
2022-12-09T08:27:00.473Z,8.33
2022-12-09T08:29:31.379Z,8.00
2022-12-09T08:32:01.637Z,9.40
2022-12-09T08:34:32.483Z,12.53
2022-12-09T08:37:03.184Z,8.80
2022-12-09T08:39:34.996Z,7.60
2022-12-09T08:42:08.577Z,9.17
2022-12-09T08:44:41.028Z,10.40
2022-12-09T08:47:11.652Z,8.27
2022-12-09T08:49:42.107Z,8.33
2022-12-09T08:52:12.271Z,9.50
2022-12-09T08:54:42.506Z,9.30
2022-12-09T08:57:15.515Z,10.00
2022-12-09T08:59:46.079Z,8.83
2022-12-09T09:02:24.647Z,8.03
2022-12-09T09:04:55.004Z,8.10
2022-12-09T09:07:25.781Z,8.73
2022-12-09T09:09:56.649Z,8.43
2022-12-09T09:12:29.866Z,8.67
2022-12-09T09:15:01.362Z,9.50
2022-12-09T09:17:31.747Z,9.77
2022-12-09T09:20:02.409Z,9.07
2022-12-09T09:22:32.775Z,8.10
2022-12-09T09:25:03.913Z,7.67
2022-12-09T09:27:37.948Z,8.97
2022-12-09T09:30:12.403Z,8.77
2022-12-09T09:32:43.268Z,7.53
2022-12-09T09:35:14.104Z,7.90
2022-12-09T09:37:44.741Z,22.83
2022-12-09T09:40:16.711Z,21.73
2022-12-09T09:42:53.660Z,11.43
2022-12-09T09:45:27.485Z,8.77
2022-12-09T09:48:04.776Z,8.17
2022-12-09T09:50:44.763Z,7.33
2022-12-09T09:53:24.071Z,7.70
2022-12-09T09:56:01.472Z,7.40
2022-12-09T09:58:44.437Z,7.40
2022-12-09T10:01:18.974Z,8.30
2022-12-09T10:04:01.498Z,7.30
2022-12-09T10:06:45.931Z,6.83
2022-12-09T10:09:30.281Z,7.60
2022-12-09T10:12:06.574Z,7.43
2022-12-09T10:14:55.509Z,7.37
2022-12-09T10:17:32.516Z,6.93
2022-12-09T10:20:12.423Z,6.73
2022-12-09T10:22:49.730Z,9.47
2022-12-09T10:25:28.376Z,6.30
2022-12-09T10:28:20.882Z,6.80
2022-12-09T10:30:56.612Z,7.00
2022-12-09T10:33:32.801Z,5.90
2022-12-09T10:36:03.575Z,5.73
2022-12-09T10:38:39.049Z,6.10
2022-12-09T10:41:46.252Z,6.00
2022-12-09T10:44:23.908Z,5.90
2022-12-09T10:47:06.337Z,6.33
2022-12-09T10:49:38.660Z,6.17
2022-12-09T10:52:09.308Z,6.90
2022-12-09T10:54:44.924Z,6.97
2022-12-09T10:57:29.786Z,6.73
2022-12-09T11:00:06.142Z,7.23
2022-12-09T11:02:39.717Z,11.87
2022-12-09T11:05:30.145Z,8.97
2022-12-09T11:08:02.108Z,8.20
2022-12-09T11:10:34.336Z,7.40
2022-12-09T11:13:11.743Z,8.37
2022-12-09T11:15:47.260Z,8.97
2022-12-09T11:18:28.482Z,8.93
2022-12-09T11:21:02.071Z,9.27
2022-12-09T11:23:33.621Z,9.50
2022-12-09T11:26:07.727Z,9.70
2022-12-09T11:28:40.541Z,9.07
2022-12-09T11:31:30.570Z,9.77
2022-12-09T11:34:16.423Z,9.30
2022-12-09T11:36:53.332Z,9.97
2022-12-09T11:39:30.495Z,8.63
2022-12-09T11:42:18.790Z,9.77
2022-12-09T11:45:00.124Z,10.13
2022-12-09T11:48:12.871Z,9.50
2022-12-09T11:50:34.654Z,10.90
2022-12-09T11:53:29.679Z,10.37
2022-12-09T11:56:09.428Z,9.30
2022-12-09T11:58:48.641Z,9.07
2022-12-09T12:01:27.470Z,9.57
2022-12-09T12:04:04.241Z,28.47
2022-12-09T12:06:47.123Z,22.10
2022-12-09T12:09:27.425Z,11.97
2022-12-09T12:12:08.462Z,15.80
2022-12-09T12:14:47.172Z,20.87
2022-12-09T12:17:27.406Z,19.77
2022-12-09T12:19:59.062Z,14.23
2022-12-09T12:22:58.624Z,9.97
2022-12-09T12:25:49.449Z,9.00
2022-12-09T12:29:03.942Z,20.27
2022-12-09T12:32:22.850Z,17.07
2022-12-09T12:35:16.532Z,13.33
2022-12-09T12:38:06.912Z,10.90
2022-12-09T12:40:51.650Z,10.50
2022-12-09T12:43:56.541Z,10.23
2022-12-09T12:46:47.210Z,9.83
2022-12-09T12:50:02.152Z,11.13
2022-12-09T12:52:55.981Z,9.53
2022-12-09T12:55:50.358Z,10.23
2022-12-09T12:58:38.068Z,10.90
2022-12-09T13:01:19.705Z,10.30
2022-12-09T13:04:03.875Z,9.67
2022-12-09T13:06:46.641Z,9.80
2022-12-09T13:09:24.862Z,27.57
2022-12-09T13:12:08.964Z,12.17
2022-12-09T13:14:53.166Z,14.00
2022-12-09T13:17:30.060Z,17.30
2022-12-09T13:20:05.134Z,45.23
2022-12-09T13:22:49.346Z,52.83
2022-12-09T13:25:30.810Z,10.33
2022-12-09T13:28:13.890Z,15.30
2022-12-09T13:30:55.553Z,15.80
2022-12-09T13:33:43.816Z,13.03
2022-12-09T13:36:23.905Z,10.80
2022-12-09T13:38:54.064Z,76.67
2022-12-09T13:41:57.878Z,46.00
2022-12-09T13:44:40.269Z,17.43
2022-12-09T13:47:36.181Z,12.63
2022-12-09T13:50:27.429Z,11.27
2022-12-09T13:53:02.500Z,10.70
2022-12-09T13:55:51.953Z,10.50
2022-12-09T13:59:17.142Z,11.13
2022-12-09T14:01:55.504Z,11.10
2022-12-09T14:04:33.089Z,11.10
2022-12-09T14:07:17.424Z,12.60
2022-12-09T14:09:56.410Z,12.33
2022-12-09T14:13:21.787Z,13.73
2022-12-09T14:16:18.539Z,13.77
2022-12-09T14:18:53.657Z,14.77
2022-12-09T14:21:33.634Z,15.27
2022-12-09T14:24:35.451Z,15.30
2022-12-09T14:27:21.343Z,13.93
2022-12-09T14:29:58.079Z,15.73
2022-12-09T14:32:35.029Z,15.60
2022-12-09T14:35:31.924Z,15.43
2022-12-09T14:38:20.512Z,17.03
2022-12-09T14:41:03.703Z,16.43
2022-12-09T14:44:00.916Z,15.47
2022-12-09T14:46:35.639Z,16.33
2022-12-09T14:49:16.160Z,16.37
2022-12-09T14:51:53.240Z,16.17
2022-12-09T14:54:32.865Z,17.37
2022-12-09T14:57:16.006Z,17.00
2022-12-09T14:59:52.978Z,15.47
2022-12-09T15:02:29.810Z,14.97
2022-12-09T15:05:02.715Z,15.33
2022-12-09T15:07:37.445Z,15.03
2022-12-09T15:10:20.718Z,16.40
2022-12-09T15:12:54.746Z,15.63
2022-12-09T15:15:29.417Z,14.57
2022-12-09T15:18:03.799Z,14.77
2022-12-09T15:20:37.996Z,15.80
2022-12-09T15:23:22.805Z,14.90
2022-12-09T15:25:56.830Z,15.00
2022-12-09T15:28:29.495Z,16.43
2022-12-09T15:31:02.967Z,15.40
2022-12-09T15:33:42.121Z,14.83
2022-12-09T15:36:17.611Z,15.70
2022-12-09T15:38:55.942Z,14.67
2022-12-09T15:41:41.825Z,15.33
2022-12-09T15:44:19.258Z,15.83
2022-12-09T15:46:54.740Z,14.83
2022-12-09T15:49:30.536Z,15.57
2022-12-09T15:52:03.829Z,18.07
2022-12-09T15:54:43.175Z,15.47
2022-12-09T15:57:18.402Z,16.30
2022-12-09T15:59:56.042Z,17.73
2022-12-09T16:02:32.221Z,17.13
2022-12-09T16:05:08.296Z,15.57
2022-12-09T16:07:39.448Z,17.60
2022-12-09T16:10:17.194Z,16.43
2022-12-09T16:12:47.602Z,16.97
2022-12-09T16:15:47.717Z,17.80
2022-12-09T16:18:23.588Z,18.50
2022-12-09T16:21:23.821Z,16.30
2022-12-09T16:23:58.603Z,16.87
2022-12-09T16:26:39.729Z,16.77
2022-12-09T16:29:22.882Z,17.27
2022-12-09T16:32:24.937Z,17.53
2022-12-09T16:34:57.871Z,16.90
2022-12-09T16:37:38.476Z,17.60
2022-12-09T16:41:10.587Z,18.13
2022-12-09T16:43:58.920Z,16.97
2022-12-09T16:46:42.678Z,18.47
2022-12-09T16:49:12.965Z,17.73
2022-12-09T16:51:44.014Z,18.97
2022-12-09T16:54:21.074Z,19.43
2022-12-09T16:56:52.256Z,25.67
2022-12-09T16:59:28.973Z,19.03
2022-12-09T17:02:04.910Z,19.17
2022-12-09T17:04:35.062Z,17.43
2022-12-09T17:07:05.142Z,19.23
2022-12-09T17:09:35.351Z,18.37
2022-12-09T17:12:05.484Z,18.17
2022-12-09T17:14:38.253Z,18.77
2022-12-09T17:17:08.371Z,19.83
2022-12-09T17:19:38.517Z,20.10
2022-12-09T17:22:08.623Z,21.97
2022-12-09T17:24:39.050Z,21.60
2022-12-09T17:27:09.118Z,23.80
2022-12-09T17:29:41.977Z,22.83
2022-12-09T17:32:12.142Z,21.27
2022-12-09T17:34:42.695Z,21.80
2022-12-09T17:37:13.246Z,21.60
2022-12-09T17:39:43.357Z,22.27
2022-12-09T17:42:13.432Z,23.87
2022-12-09T17:44:46.304Z,21.27
2022-12-09T17:47:16.426Z,20.90
2022-12-09T17:49:46.592Z,23.63
2022-12-09T17:52:16.846Z,26.07
2022-12-09T17:54:47.164Z,25.80
2022-12-09T17:57:17.291Z,23.60
2022-12-09T17:59:50.055Z,26.37
2022-12-09T18:02:20.185Z,27.10
2022-12-09T18:04:50.315Z,46.50
2022-12-09T18:07:20.549Z,29.90
2022-12-09T18:09:54.533Z,27.50
2022-12-09T18:12:24.893Z,28.37
2022-12-09T18:14:57.597Z,29.10
2022-12-09T18:17:27.714Z,27.73
2022-12-09T18:19:57.816Z,27.50
2022-12-09T18:22:35.910Z,26.80
2022-12-09T18:25:06.175Z,31.87
2022-12-09T18:27:36.407Z,30.43
2022-12-09T18:30:11.587Z,32.67
2022-12-09T18:32:41.883Z,32.13
2022-12-09T18:35:13.778Z,34.60
2022-12-09T18:37:43.861Z,38.27
2022-12-09T18:40:21.210Z,38.20
2022-12-09T18:42:51.564Z,35.63
2022-12-09T18:45:26.698Z,28.10
2022-12-09T18:47:56.843Z,28.57
2022-12-09T18:50:26.958Z,25.83
2022-12-09T18:53:10.506Z,34.90
2022-12-09T18:55:44.850Z,32.57
2022-12-09T18:58:36.554Z,30.13
2022-12-09T19:01:24.735Z,31.63
2022-12-09T19:03:58.857Z,36.97
2022-12-09T19:06:32.188Z,40.47
2022-12-09T19:09:05.003Z,37.43
2022-12-09T19:11:37.100Z,35.13
2022-12-09T19:14:09.505Z,30.80
2022-12-09T19:16:43.129Z,28.93
2022-12-09T19:19:18.413Z,26.37
2022-12-09T19:21:53.400Z,31.23
2022-12-09T19:24:28.354Z,28.40
2022-12-09T19:27:00.266Z,28.07
2022-12-09T19:29:31.045Z,26.40
2022-12-09T19:32:04.330Z,25.60
2022-12-09T19:34:35.753Z,25.20
2022-12-09T19:37:44.108Z,36.53
2022-12-09T19:40:15.178Z,34.80
2022-12-09T19:42:54.039Z,32.70
2022-12-09T19:45:24.810Z,33.70
2022-12-09T19:47:58.700Z,34.07
2022-12-09T19:50:28.742Z,26.53
2022-12-09T19:52:58.900Z,30.70
2022-12-09T19:55:29.044Z,25.83
2022-12-09T19:58:01.980Z,25.33
2022-12-09T20:00:35.602Z,24.83
2022-12-09T20:03:11.000Z,24.13
2022-12-09T20:05:50.090Z,23.33
2022-12-09T20:08:20.481Z,23.00
2022-12-09T20:10:52.406Z,22.17
2022-12-09T20:13:26.081Z,25.83
2022-12-09T20:15:58.831Z,26.03
2022-12-09T20:18:31.516Z,25.60
2022-12-09T20:21:04.644Z,27.63
2022-12-09T20:23:35.034Z,30.20
2022-12-09T20:26:09.388Z,29.40
2022-12-09T20:28:41.198Z,26.20
2022-12-09T20:31:14.429Z,25.57
2022-12-09T20:33:47.299Z,20.37
2022-12-09T20:36:21.538Z,25.70
2022-12-09T20:38:54.075Z,25.30
2022-12-09T20:41:26.069Z,36.43
2022-12-09T20:43:59.595Z,36.67
2022-12-09T20:46:32.401Z,35.43
2022-12-09T20:49:05.170Z,36.40
2022-12-09T20:51:38.075Z,26.37
2022-12-09T20:54:09.886Z,24.87
2022-12-09T20:56:40.573Z,29.30
2022-12-09T20:59:13.671Z,29.70
2022-12-09T21:01:47.262Z,48.10
2022-12-09T21:04:20.310Z,68.50
2022-12-09T21:06:50.459Z,118.30
2022-12-09T21:09:27.093Z,98.50
2022-12-09T21:11:58.486Z,41.57
2022-12-09T21:14:33.796Z,35.27
2022-12-09T21:17:04.358Z,34.43
2022-12-09T21:19:37.026Z,36.90
2022-12-09T21:22:07.372Z,32.50
2022-12-09T21:24:37.459Z,35.73
2022-12-09T21:27:07.903Z,34.03
2022-12-09T21:29:37.984Z,29.50
2022-12-09T21:32:08.404Z,31.10
2022-12-09T21:34:41.183Z,32.50
2022-12-09T21:37:11.308Z,34.17
2022-12-09T21:39:41.366Z,29.80
2022-12-09T21:42:11.546Z,28.97
2022-12-09T21:44:42.299Z,28.33
2022-12-09T21:47:12.456Z,25.20
2022-12-09T21:49:45.127Z,23.07
2022-12-09T21:52:15.382Z,23.47
2022-12-09T21:54:45.482Z,22.07
2022-12-09T21:57:15.700Z,22.57
2022-12-09T21:59:45.782Z,23.80
2022-12-09T22:02:15.936Z,21.23
2022-12-09T22:04:48.764Z,22.07
2022-12-09T22:07:18.844Z,23.33
2022-12-09T22:09:49.174Z,21.63
2022-12-09T22:12:19.259Z,23.40
2022-12-09T22:14:49.409Z,22.40
2022-12-09T22:17:19.522Z,21.50
2022-12-09T22:20:13.647Z,21.87
2022-12-09T22:22:43.206Z,23.03
2022-12-09T22:25:14.061Z,21.77
2022-12-09T22:27:44.156Z,21.23
2022-12-09T22:30:16.194Z,22.83
2022-12-09T22:32:50.557Z,22.10
2022-12-09T22:35:23.786Z,23.90
2022-12-09T22:37:53.872Z,21.63
2022-12-09T22:40:23.981Z,22.53
2022-12-09T22:42:54.139Z,23.73
2022-12-09T22:45:24.279Z,22.30
2022-12-09T22:47:57.335Z,22.67
2022-12-09T22:50:30.438Z,22.43
2022-12-09T22:53:00.585Z,24.13
2022-12-09T22:55:30.785Z,23.37
2022-12-09T22:58:00.862Z,23.27
2022-12-09T23:00:31.430Z,23.20
2022-12-09T23:03:01.537Z,23.57
2022-12-09T23:05:35.001Z,24.50
2022-12-09T23:08:05.297Z,25.50
2022-12-09T23:10:35.974Z,23.73
2022-12-09T23:13:06.122Z,24.50
2022-12-09T23:15:36.584Z,25.10
2022-12-09T23:18:07.091Z,24.63
2022-12-09T23:20:39.799Z,24.10
2022-12-09T23:23:09.880Z,23.50
2022-12-09T23:25:40.044Z,27.50
2022-12-09T23:28:12.369Z,30.17
2022-12-09T23:30:42.541Z,25.43
2022-12-09T23:33:12.642Z,26.47
2022-12-09T23:35:45.376Z,33.37
2022-12-09T23:38:15.422Z,32.63
2022-12-09T23:40:53.894Z,26.23
2022-12-09T23:43:24.050Z,31.60
2022-12-09T23:45:54.149Z,33.73
2022-12-09T23:48:27.223Z,33.47
2022-12-09T23:51:00.475Z,32.87
2022-12-09T23:53:31.154Z,32.77
2022-12-09T23:56:01.267Z,33.10
2022-12-09T23:58:33.476Z,31.40
